createdAt,value
2023-01-04T00:00:01.148Z,81.91
2023-01-04T00:05:05.805Z,82.00
2023-01-04T00:10:09.127Z,82.13
2023-01-04T00:15:12.288Z,81.84
2023-01-04T00:20:15.427Z,81.98
2023-01-04T00:25:18.625Z,81.92
2023-01-04T00:30:21.779Z,82.09
2023-01-04T00:35:44.726Z,82.07
2023-01-04T00:40:48.512Z,82.38
2023-01-04T00:45:51.731Z,82.75
2023-01-04T00:50:55.044Z,82.84
2023-01-04T00:56:01.889Z,82.88
2023-01-04T01:01:07.124Z,83.08
2023-01-04T01:06:10.822Z,83.45
2023-01-04T01:11:14.175Z,83.58
2023-01-04T01:16:44.400Z,84.13
2023-01-04T01:21:44.406Z,84.31
2023-01-04T01:26:47.592Z,84.25
2023-01-04T01:31:51.002Z,84.42
2023-01-04T01:36:54.408Z,84.54
2023-01-04T01:41:57.744Z,84.75
2023-01-04T01:47:01.619Z,84.90
2023-01-04T01:52:14.195Z,84.78
2023-01-04T01:57:22.775Z,84.88
2023-01-04T02:02:26.050Z,85.04
2023-01-04T02:07:31.517Z,84.86
2023-01-04T02:12:34.725Z,85.24
2023-01-04T02:18:21.559Z,85.11
2023-01-04T02:23:43.780Z,85.63
2023-01-04T02:28:53.022Z,85.96
2023-01-04T02:34:13.193Z,86.16
2023-01-04T02:39:54.196Z,86.40
2023-01-04T02:45:27.228Z,86.59
2023-01-04T02:50:33.856Z,86.89
2023-01-04T02:55:48.532Z,87.17
2023-01-04T03:01:46.430Z,87.33
2023-01-04T03:07:08.139Z,87.62
2023-01-04T03:12:33.530Z,87.51
2023-01-04T03:17:45.622Z,87.66
2023-01-04T03:23:16.732Z,87.63
2023-01-04T03:28:43.697Z,87.43
2023-01-04T03:34:06.200Z,88.02
2023-01-04T03:39:57.616Z,87.53
2023-01-04T03:45:35.010Z,87.31
2023-01-04T03:50:57.340Z,87.42
2023-01-04T03:56:11.094Z,87.97
2023-01-04T04:01:14.730Z,87.83
2023-01-04T04:06:48.915Z,88.23
2023-01-04T04:11:52.097Z,88.33
2023-01-04T04:16:55.335Z,88.23
2023-01-04T04:21:58.583Z,88.59
2023-01-04T04:27:01.715Z,88.40
2023-01-04T04:32:05.205Z,88.33
2023-01-04T04:37:09.546Z,88.77
2023-01-04T04:42:12.777Z,89.01
2023-01-04T04:47:15.970Z,89.12
2023-01-04T04:52:19.096Z,89.21
2023-01-04T04:57:22.374Z,89.65
2023-01-04T05:02:25.545Z,89.75
2023-01-04T05:07:28.902Z,89.03
2023-01-04T05:12:55.792Z,89.17
2023-01-04T05:18:01.578Z,89.35
2023-01-04T05:23:05.951Z,89.79
2023-01-04T05:28:09.243Z,89.76
2023-01-04T05:33:12.605Z,89.85
2023-01-04T05:38:17.089Z,89.78
2023-01-04T05:43:21.873Z,90.26
2023-01-04T05:48:25.537Z,89.99
2023-01-04T05:53:28.644Z,89.74
2023-01-04T05:58:31.742Z,89.92
2023-01-04T06:03:35.139Z,90.30
2023-01-04T06:08:38.358Z,89.91
2023-01-04T06:13:41.528Z,90.39
2023-01-04T06:18:44.658Z,90.52
2023-01-04T06:23:47.799Z,90.77
2023-01-04T06:28:50.897Z,90.89
2023-01-04T06:33:54.120Z,91.69
2023-01-04T06:38:58.936Z,91.55
2023-01-04T06:44:02.792Z,91.45
2023-01-04T06:49:05.933Z,91.35
2023-01-04T06:54:12.088Z,91.76
2023-01-04T06:59:15.264Z,91.73
2023-01-04T07:04:18.580Z,91.78
2023-01-04T07:09:21.772Z,92.31
2023-01-04T07:14:24.897Z,91.71
2023-01-04T07:19:28.120Z,91.20
2023-01-04T07:24:31.564Z,91.10
2023-01-04T07:29:34.710Z,91.48
2023-01-04T07:34:39.618Z,91.61
2023-01-04T07:39:44.140Z,92.13
2023-01-04T07:44:47.268Z,92.96
2023-01-04T07:49:50.423Z,94.14
2023-01-04T07:54:54.124Z,94.33
2023-01-04T07:59:57.293Z,94.80
2023-01-04T08:05:00.634Z,94.69
2023-01-04T08:10:04.170Z,94.80
2023-01-04T08:15:07.708Z,94.98
2023-01-04T08:20:26.575Z,95.39
2023-01-04T08:25:29.728Z,96.08
2023-01-04T08:30:38.529Z,96.61
2023-01-04T08:35:41.848Z,96.73
2023-01-04T08:41:00.360Z,96.35
2023-01-04T08:46:08.853Z,96.52
2023-01-04T08:51:15.865Z,97.13
2023-01-04T08:56:19.026Z,97.77
2023-01-04T09:01:22.339Z,98.47
2023-01-04T09:06:26.311Z,98.81
2023-01-04T09:11:29.541Z,98.55
2023-01-04T09:16:32.748Z,98.26
2023-01-04T09:21:36.198Z,98.35
2023-01-04T09:26:39.388Z,98.44
2023-01-04T09:31:42.578Z,98.52
2023-01-04T09:36:47.215Z,98.00
2023-01-04T09:42:06.139Z,97.50
2023-01-04T09:47:19.701Z,97.32
2023-01-04T09:52:43.805Z,96.40
2023-01-04T09:57:56.540Z,95.44
2023-01-04T10:03:15.755Z,95.11
2023-01-04T10:08:20.457Z,94.79
2023-01-04T10:14:01.439Z,94.95
2023-01-04T10:19:50.487Z,94.50
2023-01-04T10:24:38.573Z,93.75
2023-01-04T10:30:07.715Z,93.20
2023-01-04T10:35:23.143Z,93.28
2023-01-04T10:40:29.489Z,93.55
2023-01-04T10:45:57.170Z,93.71
2023-01-04T10:51:09.854Z,93.51
2023-01-04T10:56:39.502Z,92.93
2023-01-04T11:01:48.754Z,92.79
2023-01-04T11:07:25.782Z,92.62
2023-01-04T11:12:29.046Z,93.35
2023-01-04T11:17:33.257Z,93.42
2023-01-04T11:22:44.345Z,93.26
2023-01-04T11:27:56.832Z,93.50
2023-01-04T11:33:06.081Z,93.04
2023-01-04T11:38:12.059Z,92.73
2023-01-04T11:43:18.948Z,92.78
2023-01-04T11:48:40.834Z,92.66
2023-01-04T11:53:44.651Z,92.81
2023-01-04T11:59:19.202Z,92.44
2023-01-04T12:04:45.984Z,92.09
2023-01-04T12:09:51.914Z,92.18
2023-01-04T12:14:55.786Z,92.43
2023-01-04T12:20:10.698Z,92.58
2023-01-04T12:25:36.795Z,93.20
2023-01-04T12:30:46.499Z,92.96
2023-01-04T12:35:58.721Z,92.50
2023-01-04T12:41:02.209Z,92.51
2023-01-04T12:47:00.479Z,92.10
2023-01-04T12:52:31.993Z,91.69
2023-01-04T12:57:37.562Z,92.19
2023-01-04T13:02:52.225Z,92.40
2023-01-04T13:08:01.226Z,92.53
2023-01-04T13:13:19.555Z,92.40
2023-01-04T13:18:41.805Z,92.46
2023-01-04T13:23:54.932Z,92.83
2023-01-04T13:29:20.758Z,92.91
2023-01-04T13:34:34.633Z,92.74
2023-01-04T13:39:47.490Z,92.85
2023-01-04T13:50:31.945Z,92.83
2023-01-04T13:55:57.031Z,92.53
2023-01-04T14:01:06.739Z,92.53
2023-01-04T14:06:50.508Z,92.25
2023-01-04T14:12:26.625Z,91.67
2023-01-04T14:17:48.647Z,91.55
2023-01-04T14:22:57.240Z,91.13
2023-01-04T14:28:19.186Z,91.19
2023-01-04T14:33:30.308Z,90.78
2023-01-04T14:38:57.553Z,90.29
2023-01-04T14:44:00.578Z,90.05
2023-01-04T14:49:04.190Z,90.04
2023-01-04T14:55:12.865Z,91.04
2023-01-04T15:00:39.871Z,91.91
2023-01-04T15:05:51.908Z,91.95
2023-01-04T15:11:20.063Z,92.55
2023-01-04T15:16:23.416Z,92.83
2023-01-04T15:21:26.708Z,92.98
2023-01-04T15:26:30.590Z,93.42
2023-01-04T15:31:38.940Z,93.77
2023-01-04T15:36:43.050Z,94.25
2023-01-04T15:42:04.981Z,94.28
2023-01-04T15:47:08.241Z,93.92
2023-01-04T15:52:11.651Z,94.13
2023-01-04T15:57:14.811Z,93.63
2023-01-04T16:02:18.104Z,94.42
2023-01-04T16:07:21.610Z,94.85
2023-01-04T16:12:56.674Z,94.82
2023-01-04T16:18:00.272Z,94.94
2023-01-04T16:23:03.470Z,95.36
2023-01-04T16:28:40.080Z,95.16
2023-01-04T16:47:10.561Z,98.11
2023-01-04T16:52:16.439Z,98.65
2023-01-04T16:58:19.317Z,99.29
2023-01-04T17:30:43.215Z,100.00
2023-01-04T17:36:23.254Z,100.00
2023-01-04T17:41:28.576Z,100.00
2023-01-04T17:46:34.832Z,100.00
2023-01-04T17:51:40.127Z,100.00
2023-01-04T17:56:43.476Z,100.00
2023-01-04T18:01:46.729Z,100.00
2023-01-04T18:06:49.983Z,100.00
2023-01-04T18:11:53.397Z,100.00
2023-01-04T18:16:57.636Z,100.00
2023-01-04T18:22:01.825Z,100.00
2023-01-04T18:27:23.795Z,100.00
2023-01-04T18:32:28.154Z,100.00
2023-01-04T18:37:35.977Z,100.00
2023-01-04T18:42:39.213Z,100.00
2023-01-04T18:47:43.000Z,100.00
2023-01-04T18:52:46.206Z,100.00
2023-01-04T18:57:49.845Z,100.00
2023-01-04T19:02:53.097Z,100.00
2023-01-04T19:07:56.668Z,100.00
2023-01-04T19:12:59.812Z,100.00
2023-01-04T19:18:02.954Z,100.00
2023-01-04T19:23:07.835Z,100.00
2023-01-04T19:28:12.538Z,100.00
2023-01-04T19:33:16.500Z,100.00
2023-01-04T19:38:19.746Z,100.00
2023-01-04T19:43:22.971Z,100.00
2023-01-04T19:48:26.623Z,100.00
2023-01-04T19:53:29.894Z,100.00
2023-01-04T19:58:33.137Z,100.00
2023-01-04T20:03:36.372Z,100.00
2023-01-04T20:08:40.683Z,100.00
2023-01-04T20:13:43.843Z,100.00
2023-01-04T20:18:47.099Z,100.00
2023-01-04T20:23:50.576Z,100.00
2023-01-04T20:28:53.708Z,100.00
2023-01-04T20:33:57.229Z,100.00
2023-01-04T20:39:02.551Z,100.00
2023-01-04T20:44:05.776Z,100.00
2023-01-04T20:49:08.978Z,100.00
2023-01-04T20:54:12.211Z,100.00
2023-01-04T20:59:15.336Z,100.00
2023-01-04T21:04:18.585Z,100.00
2023-01-04T21:09:21.765Z,100.00
2023-01-04T21:14:25.166Z,100.00
2023-01-04T21:19:28.313Z,100.00
2023-01-04T21:24:33.620Z,100.00
2023-01-04T21:29:36.815Z,100.00
2023-01-04T21:34:40.051Z,100.00
2023-01-04T21:39:43.170Z,100.00
2023-01-04T21:44:46.291Z,100.00
2023-01-04T21:49:50.810Z,100.00
2023-01-04T21:54:54.195Z,100.00
2023-01-04T21:59:57.389Z,100.00
2023-01-04T22:05:00.989Z,100.00
2023-01-04T22:10:04.752Z,100.00
2023-01-04T22:15:08.342Z,100.00
2023-01-04T22:20:11.788Z,100.00
2023-01-04T22:25:15.225Z,100.00
2023-01-04T22:30:18.437Z,100.00
2023-01-04T22:35:22.411Z,100.00
2023-01-04T22:40:25.550Z,100.00
2023-01-04T22:45:28.739Z,100.00
2023-01-04T22:50:32.218Z,100.00
2023-01-04T22:56:17.010Z,100.00
2023-01-04T23:01:05.719Z,100.00
2023-01-04T23:06:12.264Z,100.00
2023-01-04T23:11:17.642Z,100.00
2023-01-04T23:16:26.184Z,100.00
2023-01-04T23:21:34.634Z,100.00
2023-01-04T23:26:37.931Z,100.00
2023-01-04T23:31:41.584Z,100.00
2023-01-04T23:36:44.804Z,100.00
2023-01-04T23:41:48.163Z,100.00
2023-01-04T23:46:57.450Z,100.00
2023-01-04T23:52:01.518Z,100.00
2023-01-04T23:57:05.062Z,100.00
